Aérodrome :
LOGIN :

S'inscrire | Disclaimer

   EN    FR    IT 

 










Légende :    VFR   VFR Marginal   IFR   IFR Intensif   IFR Très Intensif
Visi : 
Plafond : 
>= 8 km
>= 3000ft
5 à 8 km
1000 à 3000 ft
1500m à 5 km
500 à 1000 ft
800 à 1500m
200 à 500 ft
< 800m
< 200 ft
Symboles :   Orages  Brouillard  Fortes neiges  Fortes précipitations  Vent > 20 kt
SIGMETs :   Divers  Orages  Givrage  Turbulence  Onde Orograph.  Cendres Volcan.






- Altitude de l'aérodrome : 78 ft
- Code IATA : LED


ULLI - Pulkovo

DERNIER METAR :
  • 021230Z 21005MPS 160V250 9999 -SHRA FEW011 BKN017CB OVC036 05/03 Q0990 R28L/290050 NOSIG

METARs EXPIRÉS :
  • 021200Z 21005MPS 160V260 9999 -SHRA FEW011 BKN017CB OVC036 05/03 Q0990 R28L/290050 NOSIG
  • 021130Z 20004G09MPS 120V270 9999 FEW011 BKN017CB OVC036 05/03 Q0990 R28L/290050 NOSIG
  • 021100Z 21004G09MPS 140V280 9999 -SHRA FEW012 BKN017CB OVC036 04/03 Q0991 R28L/290050 NOSIG
  • 021030Z 20004G09MPS 130V250 9999 -SHRA FEW011 BKN019CB BKN036 04/03 Q0991 R28L/290050 NOSIG
  • 021000Z 20005G11MPS 130V290 9999 -SHRA FEW010 BKN019CB BKN036 04/03 Q0991 R28L/290050 NOSIG

TAF TAF ULLI
Valide du 02 à 12h jusqu'au 03 à 12h UTC


021055Z 0212/0312 21007G13MPS 6000 SCT011 BKN020
TEMPO 0212/0220 20009G15MPS 4000 -SHRA SCT010 BKN017CB
BECMG 0220/0221 22008G14MPS
TEMPO 0221/0307 23010G17MPS 3100 -SHRA SCT011 BKN015CB
BECMG 0307/0308 23010G16MPS
TEMPO 0308/0312 24013G21MPS 3100 -SHRASN BKN011 BKN020CB



MET'MAP, la Météo Aéronautique d'un coup d'oeil ! - Copyright ORBIFLY Décembre 2007 - Disclaimer

ORBIFLY MET'MAP TEAM :

Programmation & Développement : Alexandra Zaïnal
Sur une idée originale de : Baudouin d'Aumeries
Assistance à la programmation : Marc-Olivier Méhu
Soutien technique & logistique : Manuel Goepfert

Contact : metmap@orbifly.com




SOURCES & CREDITS :

   NOAA